createdAt,value
2022-12-19T00:00:42.651Z,66.54
2022-12-19T00:03:11.390Z,66.78
2022-12-19T00:05:40.638Z,66.69
2022-12-19T00:08:17.570Z,66.81
2022-12-19T00:10:55.524Z,66.60
2022-12-19T00:13:25.750Z,66.36
2022-12-19T00:15:54.284Z,66.32
2022-12-19T00:18:22.991Z,65.97
2022-12-19T00:21:00.102Z,66.03
2022-12-19T00:23:31.112Z,65.80
2022-12-19T00:26:09.340Z,66.02
2022-12-19T00:28:38.050Z,66.06
2022-12-19T00:31:07.115Z,66.64
2022-12-19T00:33:36.135Z,66.64
2022-12-19T00:36:11.047Z,66.57
2022-12-19T00:38:40.685Z,66.59
2022-12-19T00:41:14.308Z,66.68
2022-12-19T00:43:44.100Z,66.89
2022-12-19T00:46:14.830Z,67.04
2022-12-19T00:48:43.763Z,67.00
2022-12-19T00:51:14.566Z,66.92
2022-12-19T00:53:44.992Z,66.75
2022-12-19T00:56:15.550Z,66.80
2022-12-19T00:58:47.167Z,66.55
2022-12-19T01:01:18.547Z,66.81
2022-12-19T01:04:18.801Z,66.91
2022-12-19T01:06:36.797Z,66.73
2022-12-19T01:09:07.071Z,66.58
2022-12-19T01:11:54.124Z,66.45
2022-12-19T01:14:23.532Z,66.60
2022-12-19T01:16:52.640Z,66.83
2022-12-19T01:19:21.736Z,66.93
2022-12-19T01:21:50.428Z,66.78
2022-12-19T01:24:20.339Z,66.32
2022-12-19T01:26:51.474Z,66.28
2022-12-19T01:29:20.068Z,66.28
2022-12-19T01:31:49.619Z,66.12
2022-12-19T01:34:18.368Z,66.33
2022-12-19T01:36:46.887Z,66.41
2022-12-19T01:39:15.534Z,66.70
2022-12-19T01:41:44.133Z,66.85
2022-12-19T01:44:12.815Z,66.73
2022-12-19T01:46:43.717Z,66.65
2022-12-19T01:49:18.004Z,66.63
2022-12-19T01:51:54.025Z,66.72
2022-12-19T01:54:25.582Z,66.74
2022-12-19T01:56:57.485Z,66.55
2022-12-19T01:59:29.595Z,66.67
2022-12-19T02:02:05.053Z,66.66
2022-12-19T02:04:35.064Z,66.41
2022-12-19T02:07:09.378Z,66.21
2022-12-19T02:09:45.605Z,66.34
2022-12-19T02:12:14.780Z,66.50
2022-12-19T02:14:43.697Z,66.64
2022-12-19T02:17:19.992Z,66.84
2022-12-19T02:20:36.764Z,66.82
2022-12-19T02:23:28.068Z,66.74
2022-12-19T02:26:26.720Z,66.59
2022-12-19T02:29:21.724Z,66.36
2022-12-19T02:31:58.470Z,66.50
2022-12-19T02:34:39.945Z,66.41
2022-12-19T02:37:18.716Z,66.56
2022-12-19T02:39:54.910Z,66.42
2022-12-19T02:42:28.800Z,66.28
2022-12-19T02:45:03.318Z,66.08
2022-12-19T02:47:34.058Z,66.31
2022-12-19T02:50:03.845Z,66.22
2022-12-19T02:52:47.323Z,66.53
2022-12-19T02:55:21.656Z,66.57
2022-12-19T02:58:09.466Z,66.66
2022-12-19T03:00:45.424Z,66.90
2022-12-19T03:03:21.595Z,66.92
2022-12-19T03:06:01.543Z,66.77
2022-12-19T03:08:39.756Z,66.97
2022-12-19T03:11:12.740Z,66.78
2022-12-19T03:13:47.270Z,66.59
2022-12-19T03:16:15.929Z,66.48
2022-12-19T03:18:45.568Z,66.63
2022-12-19T03:21:20.349Z,66.57
2022-12-19T03:23:50.489Z,66.85
2022-12-19T03:26:21.569Z,66.79
2022-12-19T03:28:53.823Z,67.06
2022-12-19T03:31:24.942Z,67.20
2022-12-19T03:33:58.446Z,67.01
2022-12-19T03:36:32.297Z,66.96
2022-12-19T03:39:04.263Z,67.20
2022-12-19T03:41:53.133Z,67.28
2022-12-19T03:44:25.374Z,67.35
2022-12-19T03:46:59.128Z,67.11
2022-12-19T03:49:28.495Z,66.99
2022-12-19T03:52:05.595Z,66.92
2022-12-19T03:54:40.210Z,66.78
2022-12-19T03:57:14.942Z,66.69
2022-12-19T03:59:46.301Z,66.73
2022-12-19T04:02:17.122Z,66.73
2022-12-19T04:04:51.460Z,66.83
2022-12-19T04:07:22.289Z,67.17
2022-12-19T04:09:53.010Z,67.01
2022-12-19T04:12:26.034Z,66.93
2022-12-19T04:14:54.794Z,66.83
2022-12-19T04:17:31.068Z,66.93
2022-12-19T04:20:03.392Z,66.96
2022-12-19T04:22:35.818Z,66.95
2022-12-19T04:25:08.867Z,66.79
2022-12-19T04:27:41.189Z,67.03
2022-12-19T04:30:15.595Z,66.93
2022-12-19T04:32:45.934Z,67.00
2022-12-19T04:35:15.089Z,67.27
2022-12-19T04:37:44.084Z,67.13
2022-12-19T04:40:14.275Z,67.24
2022-12-19T04:42:42.760Z,67.14
2022-12-19T04:45:13.668Z,67.44
2022-12-19T04:47:45.013Z,67.40
2022-12-19T04:50:13.708Z,67.55
2022-12-19T04:52:43.018Z,67.48
2022-12-19T04:55:11.808Z,67.34
2022-12-19T04:57:40.782Z,67.14
2022-12-19T05:00:12.241Z,67.46
2022-12-19T05:02:40.928Z,67.46
2022-12-19T05:05:11.482Z,67.23
2022-12-19T05:07:40.500Z,67.35
2022-12-19T05:10:09.836Z,67.55
2022-12-19T05:12:38.340Z,67.27
2022-12-19T05:15:09.477Z,67.35
2022-12-19T05:17:38.054Z,67.49
2022-12-19T05:20:09.989Z,67.48
2022-12-19T05:22:39.446Z,67.61
2022-12-19T05:25:09.730Z,67.50
2022-12-19T05:27:38.350Z,67.59
2022-12-19T05:30:09.417Z,67.77
2022-12-19T05:32:37.982Z,67.70
2022-12-19T05:35:08.346Z,67.88
2022-12-19T05:37:36.894Z,67.69
2022-12-19T05:40:08.099Z,67.67
2022-12-19T05:42:36.719Z,67.73
2022-12-19T05:45:08.047Z,67.72
2022-12-19T05:47:38.027Z,67.50
2022-12-19T05:50:09.113Z,67.36
2022-12-19T05:52:37.920Z,67.52
2022-12-19T05:55:08.886Z,67.44
2022-12-19T05:57:37.813Z,67.63
2022-12-19T06:00:09.195Z,67.48
2022-12-19T06:02:41.173Z,67.30
2022-12-19T06:05:10.568Z,67.39
2022-12-19T06:07:39.197Z,67.14
2022-12-19T06:10:08.957Z,67.12
2022-12-19T06:12:37.551Z,67.07
2022-12-19T06:15:08.261Z,67.17
2022-12-19T06:17:36.801Z,67.16
2022-12-19T06:20:07.616Z,67.42
2022-12-19T06:22:36.189Z,67.52
2022-12-19T06:25:06.395Z,67.45
2022-12-19T06:27:35.100Z,67.35
2022-12-19T06:30:04.637Z,67.37
2022-12-19T06:32:37.739Z,67.28
2022-12-19T06:35:08.802Z,67.21
2022-12-19T06:37:39.549Z,67.19
2022-12-19T06:40:32.230Z,67.35
2022-12-19T06:43:02.764Z,67.19
2022-12-19T06:45:32.702Z,66.76
2022-12-19T06:48:01.146Z,66.61
2022-12-19T06:50:29.637Z,66.51
2022-12-19T06:52:58.323Z,66.60
2022-12-19T06:55:27.645Z,66.94
2022-12-19T06:57:56.578Z,66.66
2022-12-19T07:00:25.411Z,66.82
2022-12-19T07:02:58.549Z,67.05
2022-12-19T07:05:29.243Z,67.14
2022-12-19T07:07:57.785Z,67.38
2022-12-19T07:10:26.404Z,67.02
2022-12-19T07:12:55.200Z,67.07
2022-12-19T07:15:24.292Z,67.19
2022-12-19T07:17:56.380Z,66.93
2022-12-19T07:20:25.364Z,66.98
2022-12-19T07:22:54.481Z,67.86
2022-12-19T07:25:22.978Z,67.91
2022-12-19T07:27:52.950Z,66.58
2022-12-19T07:30:22.363Z,65.76
2022-12-19T07:32:50.837Z,65.63
2022-12-19T07:35:22.460Z,65.70
2022-12-19T07:37:51.001Z,66.61
2022-12-19T07:40:19.830Z,66.83
2022-12-19T07:42:48.587Z,67.22
2022-12-19T07:45:17.631Z,66.93
2022-12-19T07:47:47.469Z,67.24
2022-12-19T07:50:16.175Z,66.58
2022-12-19T07:52:45.470Z,65.41
2022-12-19T07:55:14.454Z,64.72
2022-12-19T07:57:43.338Z,63.92
2022-12-19T08:00:13.479Z,62.30
2022-12-19T08:02:42.391Z,61.90
2022-12-19T08:05:11.591Z,61.46
2022-12-19T08:07:40.792Z,60.57
2022-12-19T08:10:11.929Z,58.48
2022-12-19T08:12:40.626Z,57.88
2022-12-19T08:15:10.946Z,57.14
2022-12-19T08:17:40.108Z,56.53
2022-12-19T08:20:11.525Z,54.62
2022-12-19T08:22:40.414Z,54.52
2022-12-19T08:25:10.062Z,53.55
2022-12-19T08:27:40.604Z,52.86
2022-12-19T08:30:13.361Z,52.63
2022-12-19T08:32:42.035Z,51.74
2022-12-19T08:35:11.242Z,51.34
2022-12-19T08:37:40.445Z,51.45
2022-12-19T08:40:11.585Z,51.36
2022-12-19T08:42:40.207Z,50.50
2022-12-19T08:45:10.296Z,49.84
2022-12-19T08:47:38.828Z,49.78
2022-12-19T08:50:09.217Z,49.37
2022-12-19T08:52:37.670Z,48.23
2022-12-19T08:55:09.448Z,46.92
2022-12-19T08:57:41.437Z,46.55
2022-12-19T09:00:12.777Z,46.13
2022-12-19T09:02:42.600Z,45.22
2022-12-19T09:06:01.493Z,44.66
2022-12-19T09:08:00.464Z,44.62
2022-12-19T09:10:29.840Z,43.88
2022-12-19T09:12:58.420Z,43.83
2022-12-19T09:15:26.992Z,44.68
2022-12-19T09:17:55.557Z,44.78
2022-12-19T09:20:24.176Z,45.40
2022-12-19T09:22:53.351Z,44.98
2022-12-19T09:25:22.091Z,43.51
2022-12-19T09:28:25.937Z,42.66
2022-12-19T09:30:39.310Z,42.90
2022-12-19T09:33:08.017Z,42.62
2022-12-19T09:35:37.761Z,43.88
2022-12-19T09:38:06.625Z,43.96
2022-12-19T09:40:57.670Z,44.35
2022-12-19T09:43:41.436Z,44.53
2022-12-19T09:46:17.367Z,44.89
2022-12-19T09:48:54.392Z,44.79
2022-12-19T09:51:34.147Z,45.15
2022-12-19T09:54:12.174Z,45.25
2022-12-19T09:56:45.510Z,45.92
2022-12-19T09:59:24.727Z,45.80
2022-12-19T10:02:18.465Z,45.81
2022-12-19T10:04:51.714Z,45.60
2022-12-19T10:08:01.395Z,45.96
2022-12-19T10:12:34.734Z,45.83
2022-12-19T10:13:25.677Z,45.29
2022-12-19T10:16:04.271Z,45.62
2022-12-19T10:18:51.152Z,45.28
2022-12-19T10:22:15.875Z,44.93
2022-12-19T10:24:52.002Z,45.32
2022-12-19T10:27:59.203Z,45.57
2022-12-19T10:30:33.070Z,45.19
2022-12-19T10:33:14.773Z,45.31
2022-12-19T10:35:55.176Z,45.49
2022-12-19T10:38:32.173Z,45.50
2022-12-19T10:41:15.254Z,46.05
2022-12-19T10:43:52.006Z,46.64
2022-12-19T10:46:30.694Z,46.91
2022-12-19T10:48:59.384Z,47.19
2022-12-19T10:51:31.727Z,47.12
2022-12-19T10:54:01.392Z,47.47
2022-12-19T10:56:37.535Z,47.53
2022-12-19T10:59:17.495Z,47.66
2022-12-19T11:02:00.402Z,47.94
2022-12-19T11:04:33.546Z,47.66
2022-12-19T11:07:19.982Z,47.41
2022-12-19T11:10:02.973Z,47.81
2022-12-19T11:17:12.459Z,47.43
2022-12-19T11:19:45.189Z,47.11
2022-12-19T11:26:56.031Z,47.13
2022-12-19T11:28:19.850Z,47.36
2022-12-19T11:29:31.406Z,47.81
2022-12-19T11:30:47.110Z,48.13
2022-12-19T11:34:22.975Z,48.73
2022-12-19T11:37:18.900Z,49.09
2022-12-19T11:40:17.362Z,49.54
2022-12-19T11:46:34.715Z,49.00
2022-12-19T11:49:29.923Z,49.49
2022-12-19T11:55:50.964Z,49.26
2022-12-19T11:58:40.128Z,49.61
2022-12-19T12:01:58.935Z,50.14
2022-12-19T12:05:17.185Z,50.19
2022-12-19T12:12:21.895Z,50.24
2022-12-19T12:18:04.896Z,50.74
2022-12-19T12:23:07.574Z,50.80
2022-12-19T12:27:34.815Z,51.33
2022-12-19T12:31:06.910Z,51.31
2022-12-19T12:31:17.154Z,51.52
2022-12-19T12:31:31.378Z,51.70
2022-12-19T12:31:49.685Z,51.77
2022-12-19T12:35:46.912Z,51.92
2022-12-19T12:38:43.937Z,51.88
2022-12-19T12:41:45.065Z,52.57
2022-12-19T12:44:14.975Z,52.40
2022-12-19T12:46:47.833Z,52.62
2022-12-19T12:49:33.379Z,52.79
2022-12-19T12:52:04.089Z,52.66
2022-12-19T12:54:36.337Z,53.03
2022-12-19T12:57:05.387Z,52.72
2022-12-19T12:59:34.235Z,52.67
2022-12-19T13:02:15.319Z,52.79
2022-12-19T13:04:56.351Z,53.14
2022-12-19T13:07:36.127Z,53.34
2022-12-19T13:10:18.669Z,53.33
2022-12-19T13:13:02.264Z,53.61
2022-12-19T13:15:40.819Z,53.72
2022-12-19T13:18:33.874Z,53.79
2022-12-19T13:21:06.242Z,53.56
2022-12-19T13:23:47.384Z,53.50
2022-12-19T13:26:44.847Z,53.58
2022-12-19T13:29:53.180Z,53.76
2022-12-19T13:32:23.232Z,53.80
2022-12-19T13:35:31.502Z,54.12
2022-12-19T13:39:54.405Z,54.18
2022-12-19T13:40:56.662Z,54.49
2022-12-19T13:43:47.269Z,54.59
2022-12-19T13:46:32.788Z,54.77
2022-12-19T13:49:06.077Z,54.81
2022-12-19T13:51:45.483Z,55.00
2022-12-19T13:54:26.438Z,55.03
2022-12-19T13:56:56.265Z,55.19
2022-12-19T13:59:28.169Z,55.39
2022-12-19T14:02:06.560Z,55.51
2022-12-19T14:04:35.745Z,55.54
2022-12-19T14:07:06.798Z,55.63
2022-12-19T14:11:26.292Z,55.95
2022-12-19T14:13:57.508Z,55.85
2022-12-19T14:15:40.580Z,55.90
2022-12-19T14:18:44.583Z,56.13
2022-12-19T14:22:03.777Z,56.25
2022-12-19T14:24:15.944Z,56.29
2022-12-19T14:28:17.445Z,56.26
2022-12-19T14:30:08.549Z,56.40
2022-12-19T14:33:46.717Z,56.50
2022-12-19T14:36:05.242Z,56.62
2022-12-19T14:39:19.764Z,56.81
2022-12-19T14:41:08.397Z,56.94
2022-12-19T14:43:59.516Z,56.90
2022-12-19T14:51:09.061Z,57.09
2022-12-19T14:54:13.168Z,57.21
2022-12-19T14:54:22.085Z,57.61
2022-12-19T14:56:12.354Z,57.58
2022-12-19T14:58:53.054Z,57.81
2022-12-19T15:01:26.473Z,58.01
2022-12-19T15:04:49.127Z,58.13
2022-12-19T15:07:07.542Z,58.03
2022-12-19T15:11:00.587Z,57.94
2022-12-19T15:14:48.131Z,58.14
2022-12-19T15:15:58.869Z,58.40
2022-12-19T15:18:38.026Z,58.61
2022-12-19T15:21:10.488Z,58.55
2022-12-19T15:23:39.098Z,58.69
2022-12-19T15:26:13.169Z,58.68
2022-12-19T15:28:43.952Z,58.74
2022-12-19T15:31:24.634Z,58.76
2022-12-19T15:34:32.840Z,58.99
2022-12-19T15:36:42.444Z,58.95
2022-12-19T15:39:11.184Z,59.10
2022-12-19T15:41:39.861Z,59.22
2022-12-19T15:44:14.302Z,59.12
2022-12-19T15:46:48.625Z,59.29
2022-12-19T15:49:19.661Z,59.39
2022-12-19T15:51:49.250Z,59.43
2022-12-19T15:57:15.302Z,59.75
2022-12-19T15:59:45.505Z,59.66
2022-12-19T16:02:21.728Z,59.76
2022-12-19T16:04:52.874Z,59.75
2022-12-19T16:07:25.201Z,59.71
2022-12-19T16:09:54.972Z,59.70
2022-12-19T16:12:29.186Z,59.77
2022-12-19T16:15:00.766Z,59.90
2022-12-19T16:17:32.340Z,60.04
2022-12-19T16:20:01.224Z,60.03
2022-12-19T16:22:30.190Z,60.10
2022-12-19T16:24:59.179Z,60.19
2022-12-19T16:27:30.977Z,60.07
2022-12-19T16:30:16.615Z,60.04
2022-12-19T16:32:48.060Z,59.83
2022-12-19T16:35:28.988Z,59.97
2022-12-19T16:38:08.349Z,60.10
2022-12-19T16:40:37.332Z,59.95
2022-12-19T16:43:12.977Z,60.04
2022-12-19T16:45:42.378Z,60.12
2022-12-19T16:48:19.879Z,60.22
2022-12-19T16:50:49.652Z,60.13
2022-12-19T16:53:19.532Z,60.05
2022-12-19T16:55:50.047Z,60.25
2022-12-19T16:58:21.481Z,60.35
2022-12-19T17:00:54.336Z,60.36
2022-12-19T17:03:29.765Z,60.33
2022-12-19T17:05:57.686Z,60.34
2022-12-19T17:12:31.481Z,60.44
2022-12-19T17:15:54.514Z,60.49
2022-12-19T17:18:31.572Z,60.66
2022-12-19T17:20:59.549Z,60.70
2022-12-19T17:23:31.795Z,60.94
2022-12-19T17:26:01.992Z,60.82
2022-12-19T17:28:31.025Z,60.83
2022-12-19T17:31:04.603Z,60.70
2022-12-19T17:33:36.918Z,60.67
2022-12-19T17:36:11.651Z,60.54
2022-12-19T17:38:41.694Z,60.61
2022-12-19T17:41:15.469Z,60.52
2022-12-19T17:43:45.210Z,60.58
2022-12-19T17:46:20.202Z,60.78
2022-12-19T17:48:51.886Z,60.64
2022-12-19T17:51:22.741Z,60.86
2022-12-19T17:53:51.843Z,60.77
2022-12-19T17:56:21.406Z,60.90
2022-12-19T17:58:50.313Z,61.03
2022-12-19T18:01:21.125Z,61.02
2022-12-19T18:03:52.519Z,60.90
2022-12-19T18:06:22.101Z,60.95
2022-12-19T18:08:50.882Z,60.80
2022-12-19T18:11:21.483Z,60.95
2022-12-19T18:13:50.722Z,61.07
2022-12-19T18:16:22.583Z,60.96
2022-12-19T18:18:51.673Z,60.85
2022-12-19T18:21:25.931Z,60.51
2022-12-19T18:23:54.643Z,60.47
2022-12-19T18:26:23.241Z,60.49
2022-12-19T18:28:51.960Z,60.64
2022-12-19T18:31:25.273Z,60.82
2022-12-19T18:33:59.564Z,60.99
2022-12-19T18:36:37.018Z,60.78
2022-12-19T18:39:20.620Z,60.92
2022-12-19T18:41:50.208Z,61.00
2022-12-19T18:44:19.261Z,61.04
2022-12-19T18:46:50.564Z,60.87
2022-12-19T18:49:19.383Z,60.89
2022-12-19T18:51:48.036Z,60.86
2022-12-19T18:54:18.558Z,60.66
2022-12-19T18:56:48.223Z,60.82
2022-12-19T18:59:16.887Z,60.99
2022-12-19T19:01:47.552Z,60.67
2022-12-19T19:04:17.939Z,60.88
2022-12-19T19:06:52.223Z,61.01
2022-12-19T19:09:24.118Z,61.11
2022-12-19T19:12:31.337Z,61.05
2022-12-19T19:15:02.451Z,61.01
2022-12-19T19:17:34.860Z,61.29
2022-12-19T19:20:11.725Z,60.95
2022-12-19T19:22:50.316Z,61.16
2022-12-19T19:25:20.297Z,61.18
2022-12-19T19:27:51.778Z,61.03
2022-12-19T19:30:43.861Z,61.20
2022-12-19T19:33:21.324Z,61.37
2022-12-19T19:36:11.704Z,61.44
2022-12-19T19:38:56.045Z,61.46
2022-12-19T19:41:32.390Z,61.33
2022-12-19T19:44:18.805Z,61.40
2022-12-19T19:46:49.548Z,61.07
2022-12-19T19:49:23.344Z,60.96
2022-12-19T19:51:58.510Z,60.98
2022-12-19T19:54:36.672Z,61.22
2022-12-19T19:57:05.323Z,61.18
2022-12-19T19:59:35.745Z,61.03
2022-12-19T20:02:08.336Z,60.99
2022-12-19T20:04:41.740Z,61.10
2022-12-19T20:07:16.854Z,61.05
2022-12-19T20:09:50.195Z,60.94
2022-12-19T20:12:24.296Z,61.05
2022-12-19T20:14:52.990Z,61.07
2022-12-19T20:17:23.684Z,60.83
2022-12-19T20:20:03.204Z,61.10
2022-12-19T20:22:41.439Z,60.90
2022-12-19T20:25:14.547Z,60.79
2022-12-19T20:27:51.819Z,61.01
2022-12-19T20:30:20.837Z,60.75
2022-12-19T20:32:49.535Z,60.80
2022-12-19T20:35:18.342Z,60.97
2022-12-19T20:37:47.292Z,60.82
2022-12-19T20:40:16.265Z,60.65
2022-12-19T20:42:45.029Z,60.77
2022-12-19T20:45:21.350Z,61.08
2022-12-19T20:47:51.034Z,60.71
2022-12-19T20:50:20.754Z,61.20
2022-12-19T20:52:49.530Z,61.07
2022-12-19T20:55:18.219Z,60.88
2022-12-19T20:57:46.950Z,60.91
2022-12-19T21:00:18.247Z,61.13
2022-12-19T21:03:25.658Z,61.18
2022-12-19T21:05:35.366Z,60.83
2022-12-19T21:08:03.968Z,60.83
2022-12-19T21:10:32.810Z,60.98
2022-12-19T21:13:01.392Z,60.90
2022-12-19T21:15:31.313Z,60.62
2022-12-19T21:18:00.860Z,60.90
2022-12-19T21:20:34.281Z,60.70
2022-12-19T21:23:03.590Z,60.99
2022-12-19T21:25:32.182Z,60.59
2022-12-19T21:28:00.671Z,60.88
2022-12-19T21:30:29.203Z,61.29
2022-12-19T21:32:57.731Z,61.35
2022-12-19T21:35:26.973Z,61.26
2022-12-19T21:37:55.893Z,60.99
2022-12-19T21:40:24.464Z,60.95
2022-12-19T21:42:53.092Z,61.12
2022-12-19T21:45:21.606Z,61.16
2022-12-19T21:47:50.162Z,61.20
2022-12-19T21:50:19.923Z,61.20
2022-12-19T21:52:54.249Z,61.23
2022-12-19T21:55:24.395Z,61.40
2022-12-19T21:57:53.059Z,61.89
2022-12-19T22:00:22.182Z,61.70
2022-12-19T22:03:12.605Z,62.04
2022-12-19T22:05:39.713Z,61.76
2022-12-19T22:08:10.586Z,61.94
2022-12-19T22:10:39.719Z,62.13
2022-12-19T22:13:08.290Z,62.30
2022-12-19T22:15:36.990Z,62.44
2022-12-19T22:18:06.163Z,62.73
2022-12-19T22:20:34.814Z,62.67
2022-12-19T22:23:05.904Z,62.65
2022-12-19T22:25:38.978Z,62.51
2022-12-19T22:28:07.559Z,62.85
2022-12-19T22:30:36.562Z,62.65
2022-12-19T22:33:05.428Z,62.68
2022-12-19T22:35:34.928Z,62.81
2022-12-19T22:38:03.541Z,62.84
2022-12-19T22:40:32.543Z,63.22
2022-12-19T22:43:01.167Z,63.15
2022-12-19T22:45:31.597Z,63.27
2022-12-19T22:48:00.266Z,63.04
2022-12-19T22:50:28.988Z,63.06
2022-12-19T22:52:57.721Z,63.42
2022-12-19T22:55:26.864Z,63.50
2022-12-19T22:57:55.626Z,63.20
2022-12-19T23:00:24.716Z,63.43
2022-12-19T23:02:53.257Z,63.26
2022-12-19T23:05:22.396Z,63.50
2022-12-19T23:07:51.075Z,63.46
2022-12-19T23:10:19.965Z,63.47
2022-12-19T23:12:49.056Z,63.58
2022-12-19T23:15:18.029Z,63.96
2022-12-19T23:17:46.546Z,63.84
2022-12-19T23:20:15.413Z,63.65
2022-12-19T23:22:44.123Z,63.73
2022-12-19T23:25:13.312Z,64.12
2022-12-19T23:27:42.102Z,64.09
2022-12-19T23:30:12.057Z,64.18
2022-12-19T23:32:45.453Z,64.41
2022-12-19T23:35:17.713Z,64.08
2022-12-19T23:37:46.479Z,64.00
2022-12-19T23:40:15.371Z,64.47
2022-12-19T23:42:44.056Z,64.63
2022-12-19T23:45:13.251Z,64.82
2022-12-19T23:47:41.807Z,64.57
2022-12-19T23:50:11.854Z,64.87
2022-12-19T23:52:41.315Z,64.98
2022-12-19T23:55:11.304Z,65.02
2022-12-19T23:57:40.190Z,65.28
